createdAt,value
2022-11-19T00:01:07.544Z,99576.38
2022-11-19T00:03:35.544Z,99567.59
2022-11-19T00:06:10.142Z,99578.19
2022-11-19T00:08:36.883Z,99582.75
2022-11-19T00:11:12.161Z,99572.19
2022-11-19T00:13:39.515Z,99579.31
2022-11-19T00:16:16.422Z,99583.78
2022-11-19T00:18:42.780Z,99583.91
2022-11-19T00:21:11.962Z,99589.28
2022-11-19T00:23:39.564Z,99592.06
2022-11-19T00:26:14.355Z,99578.84
2022-11-19T00:28:41.748Z,99584.13
2022-11-19T00:31:10.698Z,99582.47
2022-11-19T00:33:38.530Z,99582.53
2022-11-19T00:36:06.831Z,99589.47
2022-11-19T00:38:33.998Z,99575.13
2022-11-19T00:41:00.545Z,99593.47
2022-11-19T00:43:45.858Z,99601.94
2022-11-19T00:46:13.694Z,99602.69
2022-11-19T00:48:40.125Z,99612.19
2022-11-19T00:51:08.502Z,99608.53
2022-11-19T00:53:35.561Z,99610.06
2022-11-19T00:56:03.795Z,99609.97
2022-11-19T00:58:30.408Z,99609.00
2022-11-19T01:00:57.049Z,99608.03
2022-11-19T01:03:24.341Z,99606.16
2022-11-19T01:05:51.001Z,99604.47
2022-11-19T01:08:18.060Z,99605.22
2022-11-19T01:10:45.253Z,99607.81
2022-11-19T01:13:31.130Z,99610.47
2022-11-19T01:15:57.926Z,99611.28
2022-11-19T01:18:24.261Z,99612.00
2022-11-19T01:20:50.647Z,99616.28
2022-11-19T01:23:17.084Z,99616.25
2022-11-19T01:25:43.596Z,99618.06
2022-11-19T01:28:09.971Z,99618.00
2022-11-19T01:30:40.572Z,99616.16
2022-11-19T01:33:07.394Z,99623.06
2022-11-19T01:35:34.677Z,99624.75
2022-11-19T01:38:02.085Z,99629.94
2022-11-19T01:40:29.007Z,99622.81
2022-11-19T01:42:55.483Z,99624.56
2022-11-19T01:45:30.070Z,99624.56
2022-11-19T01:48:19.579Z,99631.59
2022-11-19T01:50:51.136Z,99629.81
2022-11-19T01:53:19.381Z,99636.84
2022-11-19T01:55:47.186Z,99636.06
2022-11-19T01:58:18.036Z,99634.19
2022-11-19T02:00:44.410Z,99635.00
2022-11-19T02:03:12.690Z,99643.69
2022-11-19T02:05:41.453Z,99635.72
2022-11-19T02:08:09.691Z,99626.81
2022-11-19T02:10:58.612Z,99640.88
2022-11-19T02:13:37.661Z,99640.97
2022-11-19T02:16:24.627Z,99644.38
2022-11-19T02:18:59.982Z,99649.50
2022-11-19T02:22:11.536Z,99645.88
2022-11-19T02:24:51.334Z,99652.78
2022-11-19T02:27:42.678Z,99654.50
2022-11-19T02:30:12.203Z,99648.38
2022-11-19T02:32:56.833Z,99649.09
2022-11-19T02:35:36.000Z,99642.88
2022-11-19T02:38:12.506Z,99650.66
2022-11-19T02:40:46.658Z,99652.34
2022-11-19T02:43:29.638Z,99664.63
2022-11-19T02:46:08.553Z,99658.34
2022-11-19T02:48:38.833Z,99655.59
2022-11-19T02:51:06.960Z,99657.31
2022-11-19T02:53:33.695Z,99651.94
2022-11-19T02:56:17.403Z,99681.75
2022-11-19T02:59:09.869Z,99672.94
2022-11-19T03:01:59.885Z,99674.56
2022-11-19T03:04:30.397Z,99671.06
2022-11-19T03:07:07.099Z,99669.38
2022-11-19T03:09:37.626Z,99667.44
2022-11-19T03:12:33.961Z,99675.22
2022-11-19T03:15:37.386Z,99683.09
2022-11-19T03:18:12.729Z,99680.56
2022-11-19T03:20:42.088Z,99689.38
2022-11-19T03:23:25.752Z,99682.38
2022-11-19T03:26:04.437Z,99688.50
2022-11-19T03:28:35.796Z,99677.94
2022-11-19T03:31:04.189Z,99673.44
2022-11-19T03:33:35.357Z,99674.34
2022-11-19T03:36:17.299Z,99671.66
2022-11-19T03:38:49.178Z,99673.34
2022-11-19T03:41:18.860Z,99673.19
2022-11-19T03:43:51.139Z,99674.00
2022-11-19T03:46:19.957Z,99682.84
2022-11-19T03:48:51.282Z,99681.75
2022-11-19T03:51:21.988Z,99689.53
2022-11-19T03:53:48.937Z,99679.94
2022-11-19T03:56:21.706Z,99689.41
2022-11-19T03:58:48.053Z,99685.78
2022-11-19T04:01:14.655Z,99692.66
2022-11-19T04:04:03.152Z,99692.63
2022-11-19T04:06:29.423Z,99697.72
2022-11-19T04:08:55.756Z,99705.63
2022-11-19T04:13:47.390Z,99714.22
2022-11-19T04:16:13.710Z,99711.41
2022-11-19T04:18:40.362Z,99712.25
2022-11-19T04:21:06.690Z,99710.44
2022-11-19T04:23:33.005Z,99713.91
2022-11-19T04:25:59.327Z,99715.50
2022-11-19T04:28:25.690Z,99712.78
2022-11-19T04:30:51.961Z,99720.72
2022-11-19T04:33:20.693Z,99720.47
2022-11-19T04:35:47.045Z,99729.44
2022-11-19T04:38:13.415Z,99716.88
2022-11-19T04:40:39.741Z,99730.88
2022-11-19T04:43:06.028Z,99737.09
2022-11-19T04:45:32.354Z,99735.91
2022-11-19T04:47:58.730Z,99740.25
2022-11-19T04:50:25.129Z,99748.97
2022-11-19T04:52:51.517Z,99753.19
2022-11-19T04:55:17.852Z,99751.97
2022-11-19T04:57:44.178Z,99753.69
2022-11-19T05:00:11.161Z,99756.88
2022-11-19T05:02:37.441Z,99755.91
2022-11-19T05:05:04.055Z,99757.19
2022-11-19T05:07:30.413Z,99766.69
2022-11-19T05:09:56.731Z,99770.16
2022-11-19T05:12:23.038Z,99757.63
2022-11-19T05:14:49.365Z,99763.53
2022-11-19T05:17:15.712Z,99767.00
2022-11-19T05:19:42.004Z,99767.75
2022-11-19T05:22:08.278Z,99772.75
2022-11-19T05:24:34.616Z,99777.22
2022-11-19T05:27:01.121Z,99775.25
2022-11-19T05:29:27.411Z,99773.63
2022-11-19T05:31:53.714Z,99775.25
2022-11-19T05:34:20.238Z,99775.78
2022-11-19T05:36:46.561Z,99776.75
2022-11-19T05:39:16.167Z,99776.50
2022-11-19T05:41:46.640Z,99785.16
2022-11-19T05:44:12.938Z,99776.19
2022-11-19T05:46:39.267Z,99777.22
2022-11-19T05:49:05.849Z,99772.06
2022-11-19T05:51:32.198Z,99776.28
2022-11-19T05:53:58.621Z,99787.44
2022-11-19T05:58:52.676Z,99783.69
2022-11-19T06:01:29.709Z,99789.97
2022-11-19T06:03:56.733Z,99781.16
2022-11-19T06:06:25.408Z,99787.50
2022-11-19T06:08:51.701Z,99788.44
2022-11-19T06:11:37.072Z,99783.75
2022-11-19T06:14:03.547Z,99802.84
2022-11-19T06:16:29.828Z,99813.69
2022-11-19T06:18:56.094Z,99808.38
2022-11-19T06:21:22.423Z,99802.84
2022-11-19T06:23:48.705Z,99807.19
2022-11-19T06:26:26.074Z,99814.25
2022-11-19T06:28:53.130Z,99816.59
2022-11-19T06:31:19.921Z,99809.53
2022-11-19T06:33:46.424Z,99811.75
2022-11-19T06:36:12.980Z,99809.09
2022-11-19T06:38:39.517Z,99813.25
2022-11-19T06:41:06.478Z,99819.38
2022-11-19T06:43:32.846Z,99821.81
2022-11-19T06:45:59.190Z,99814.03
2022-11-19T06:48:25.526Z,99816.53
2022-11-19T06:50:51.817Z,99823.38
2022-11-19T06:53:18.184Z,99812.75
2022-11-19T06:55:44.530Z,99826.00
2022-11-19T06:58:10.867Z,99838.13
2022-11-19T07:00:37.205Z,99834.56
2022-11-19T07:03:03.589Z,99835.44
2022-11-19T07:05:29.916Z,99841.41
2022-11-19T07:08:01.554Z,99844.75
2022-11-19T07:10:29.428Z,99845.59
2022-11-19T07:12:55.809Z,99846.31
2022-11-19T07:15:22.123Z,99850.69
2022-11-19T07:17:48.872Z,99856.75
2022-11-19T07:20:18.435Z,99849.81
2022-11-19T07:22:44.776Z,99853.16
2022-11-19T07:25:13.922Z,99850.53
2022-11-19T07:27:43.255Z,99859.31
2022-11-19T07:30:10.183Z,99854.44
2022-11-19T07:32:36.460Z,99863.44
2022-11-19T07:35:02.768Z,99856.47
2022-11-19T07:37:29.130Z,99865.03
2022-11-19T07:39:55.441Z,99871.88
2022-11-19T07:42:40.461Z,99878.00
2022-11-19T07:45:07.388Z,99882.44
2022-11-19T07:47:34.382Z,99892.06
2022-11-19T07:50:00.892Z,99889.50
2022-11-19T07:52:29.717Z,99888.63
2022-11-19T07:54:56.793Z,99889.97
2022-11-19T07:57:29.705Z,99902.75
2022-11-19T07:59:56.524Z,99901.88
2022-11-19T08:02:23.669Z,99905.25
2022-11-19T08:04:50.045Z,99911.59
2022-11-19T08:07:16.645Z,99917.38
2022-11-19T08:09:43.037Z,99924.78
2022-11-19T08:12:09.390Z,99918.09
2022-11-19T08:14:35.783Z,99924.22
2022-11-19T08:17:20.554Z,99922.00
2022-11-19T08:19:46.894Z,99920.97
2022-11-19T08:22:13.514Z,99927.69
2022-11-19T08:24:39.895Z,99933.28
2022-11-19T08:27:06.325Z,99929.72
2022-11-19T08:29:32.758Z,99925.28
2022-11-19T08:31:59.083Z,99930.69
2022-11-19T08:34:25.495Z,99935.41
2022-11-19T08:36:51.852Z,99936.94
2022-11-19T08:39:18.205Z,99939.69
2022-11-19T08:42:03.033Z,99944.19
2022-11-19T08:44:29.333Z,99940.50
2022-11-19T08:46:55.727Z,99940.38
2022-11-19T08:49:22.069Z,99937.38
2022-11-19T08:51:48.473Z,99944.75
2022-11-19T08:54:14.898Z,99952.03
2022-11-19T08:56:41.294Z,99955.72
2022-11-19T08:59:07.920Z,99951.50
2022-11-19T09:01:34.286Z,99956.91
2022-11-19T09:04:00.586Z,99961.81
2022-11-19T09:06:27.168Z,99960.59
2022-11-19T09:08:53.856Z,99964.94
2022-11-19T09:11:21.652Z,99978.03
2022-11-19T09:13:48.383Z,99969.31
2022-11-19T09:16:15.331Z,99969.19
2022-11-19T09:18:42.116Z,99972.69
2022-11-19T09:21:11.207Z,99971.16
2022-11-19T09:23:38.613Z,99970.78
2022-11-19T09:26:13.362Z,99967.44
2022-11-19T09:28:40.331Z,99968.53
2022-11-19T09:31:10.893Z,99979.59
2022-11-19T09:33:41.971Z,99968.88
2022-11-19T09:36:09.508Z,99966.06
2022-11-19T09:38:36.189Z,99980.53
2022-11-19T09:41:18.014Z,99980.72
2022-11-19T09:43:47.315Z,99994.50
2022-11-19T09:46:29.417Z,99995.56
2022-11-19T09:49:03.213Z,99992.31
2022-11-19T09:51:34.022Z,99995.97
2022-11-19T09:54:07.085Z,99993.91
2022-11-19T09:56:39.851Z,99981.50
2022-11-19T09:59:26.136Z,99984.59
2022-11-19T10:01:53.719Z,99994.34
2022-11-19T10:04:23.668Z,100002.44
2022-11-19T10:06:52.724Z,100004.97
2022-11-19T10:09:56.042Z,100011.44
2022-11-19T10:13:11.540Z,99999.34
2022-11-19T10:16:05.841Z,99989.19
2022-11-19T10:19:07.401Z,99989.38
2022-11-19T10:21:41.001Z,99989.84
2022-11-19T10:24:29.062Z,99990.84
2022-11-19T10:27:07.219Z,99978.59
2022-11-19T10:29:38.205Z,99974.56
2022-11-19T10:32:23.242Z,99977.38
2022-11-19T10:34:53.882Z,99985.19
2022-11-19T10:37:23.530Z,99979.19
2022-11-19T10:39:57.184Z,99983.19
2022-11-19T10:42:31.980Z,99983.72
2022-11-19T10:45:15.939Z,99988.75
2022-11-19T10:48:09.149Z,99991.50
2022-11-19T10:50:36.268Z,99994.84
2022-11-19T10:53:25.580Z,99998.41
2022-11-19T10:55:55.157Z,99994.50
2022-11-19T10:58:25.697Z,100006.63
2022-11-19T11:00:57.790Z,100010.34
2022-11-19T11:03:28.818Z,99999.09
2022-11-19T11:05:56.913Z,100007.78
2022-11-19T11:08:23.517Z,100003.88
2022-11-19T11:10:51.011Z,100001.25
2022-11-19T11:13:47.625Z,99996.41
2022-11-19T11:16:17.936Z,99992.50
2022-11-19T11:18:46.107Z,99988.22
2022-11-19T11:21:29.701Z,99990.78
2022-11-19T11:23:56.712Z,99993.41
2022-11-19T11:26:26.499Z,99984.13
2022-11-19T11:28:57.266Z,99990.25
2022-11-19T11:31:34.151Z,99987.63
2022-11-19T11:34:02.153Z,99991.78
2022-11-19T11:36:32.800Z,99988.25
2022-11-19T11:39:01.112Z,100000.41
2022-11-19T11:42:04.782Z,100001.13
2022-11-19T11:44:32.109Z,99992.25
2022-11-19T11:47:20.526Z,99990.47
2022-11-19T11:49:55.691Z,99987.44
2022-11-19T11:52:42.326Z,99986.47
2022-11-19T11:55:21.770Z,99993.56
2022-11-19T11:57:59.926Z,99996.13
2022-11-19T12:00:46.334Z,99996.06
2022-11-19T12:03:20.865Z,99994.34
2022-11-19T12:05:47.109Z,99998.56
2022-11-19T12:08:13.362Z,99992.41
2022-11-19T12:11:08.954Z,99993.66
2022-11-19T12:13:38.500Z,99990.19
2022-11-19T12:16:18.924Z,99992.66
2022-11-19T12:19:05.631Z,99991.34
2022-11-19T12:21:47.223Z,99986.91
2022-11-19T12:24:18.720Z,99995.44
2022-11-19T12:27:02.684Z,99992.59
2022-11-19T12:29:42.916Z,99991.75
2022-11-19T12:32:18.444Z,100000.97
2022-11-19T12:35:08.078Z,100000.34
2022-11-19T12:38:05.381Z,100001.75
2022-11-19T12:40:57.637Z,99993.75
2022-11-19T12:43:49.730Z,100002.59
2022-11-19T12:46:37.665Z,99997.47
2022-11-19T12:49:34.531Z,100004.03
2022-11-19T12:52:39.374Z,100005.88
2022-11-19T12:55:21.693Z,99994.41
2022-11-19T12:58:10.338Z,99993.31
2022-11-19T13:00:45.266Z,100001.88
2022-11-19T13:03:30.294Z,100012.22
2022-11-19T13:06:02.622Z,100006.38
2022-11-19T13:08:38.314Z,100003.66
2022-11-19T13:11:13.347Z,100006.63
2022-11-19T13:13:55.491Z,100005.84
2022-11-19T13:16:23.952Z,99998.56
2022-11-19T13:18:53.856Z,100004.78
2022-11-19T13:21:31.201Z,99995.84
2022-11-19T13:24:07.993Z,99993.47
2022-11-19T13:26:36.767Z,100006.69
2022-11-19T13:29:30.185Z,99996.38
2022-11-19T13:32:01.842Z,100007.97
2022-11-19T13:34:45.188Z,99999.25
2022-11-19T13:37:19.397Z,100009.88
2022-11-19T13:39:52.008Z,99993.53
2022-11-19T13:42:39.563Z,100000.13
2022-11-19T13:45:13.210Z,100001.19
2022-11-19T13:47:58.118Z,100000.34
2022-11-19T13:50:32.385Z,100002.97
2022-11-19T13:53:06.026Z,100013.22
2022-11-19T13:55:39.873Z,100002.19
2022-11-19T13:58:18.403Z,100011.88
2022-11-19T14:01:08.270Z,100006.31
2022-11-19T14:04:22.646Z,100016.50
2022-11-19T14:07:19.687Z,100019.34
2022-11-19T14:10:07.072Z,100018.00
2022-11-19T14:12:39.398Z,100002.31
2022-11-19T14:15:58.536Z,100007.56
2022-11-19T14:18:58.007Z,100010.72
2022-11-19T14:21:42.708Z,100018.34
2022-11-19T14:24:45.962Z,100024.44
2022-11-19T14:27:27.389Z,100023.34
2022-11-19T14:29:58.714Z,100021.63
2022-11-19T14:32:35.016Z,100026.13
2022-11-19T14:35:01.251Z,100036.53
2022-11-19T14:37:30.030Z,100028.63
2022-11-19T14:40:07.510Z,100032.47
2022-11-19T14:42:53.808Z,100035.56
2022-11-19T14:45:20.862Z,100034.72
2022-11-19T14:47:47.953Z,100033.00
2022-11-19T14:50:28.810Z,100035.97
2022-11-19T14:52:58.606Z,100042.28
2022-11-19T14:55:28.446Z,100037.69
2022-11-19T14:58:01.708Z,100037.06
2022-11-19T15:00:38.821Z,100043.16
2022-11-19T15:03:13.665Z,100036.75
2022-11-19T15:05:43.046Z,100026.91
2022-11-19T15:08:18.578Z,100033.31
2022-11-19T15:11:08.299Z,100037.81
2022-11-19T15:13:36.839Z,100041.22
2022-11-19T15:16:25.221Z,100042.69
2022-11-19T15:19:17.806Z,100045.78
2022-11-19T15:22:17.404Z,100043.19
2022-11-19T15:24:53.321Z,100046.38
2022-11-19T15:27:25.541Z,100044.78
2022-11-19T15:30:35.201Z,100047.16
2022-11-19T15:33:16.258Z,100050.78
2022-11-19T15:36:13.625Z,100048.69
2022-11-19T15:38:51.857Z,100060.91
2022-11-19T15:41:23.502Z,100055.09
2022-11-19T15:43:59.151Z,100059.06
2022-11-19T15:46:40.181Z,100058.25
2022-11-19T15:49:23.424Z,100065.97
2022-11-19T15:51:56.421Z,100065.78
2022-11-19T15:54:34.122Z,100063.88
2022-11-19T15:57:03.940Z,100068.66
2022-11-19T15:59:34.946Z,100069.72
2022-11-19T16:02:04.250Z,100066.41
2022-11-19T16:04:38.924Z,100058.00
2022-11-19T16:07:08.786Z,100070.81
2022-11-19T16:09:35.963Z,100066.28
2022-11-19T16:12:21.263Z,100065.81
2022-11-19T16:15:12.593Z,100076.88
2022-11-19T16:17:46.492Z,100080.88
2022-11-19T16:20:12.971Z,100089.41
2022-11-19T16:22:43.600Z,100088.47
2022-11-19T16:25:23.310Z,100093.69
2022-11-19T16:27:49.785Z,100090.25
2022-11-19T16:30:31.581Z,100088.53
2022-11-19T16:32:59.459Z,100080.81
2022-11-19T16:35:29.776Z,100088.34
2022-11-19T16:37:58.329Z,100086.81
2022-11-19T16:40:26.629Z,100085.84
2022-11-19T16:43:02.020Z,100089.47
2022-11-19T16:45:31.579Z,100092.16
2022-11-19T16:48:02.501Z,100091.19
2022-11-19T16:50:32.071Z,100090.25
2022-11-19T16:53:06.505Z,100084.97
2022-11-19T16:55:35.820Z,100087.50
2022-11-19T16:58:12.694Z,100086.81
2022-11-19T17:00:39.404Z,100074.72
2022-11-19T17:03:21.031Z,100078.16
2022-11-19T17:05:50.344Z,100068.66
2022-11-19T17:08:25.108Z,100078.84
2022-11-19T17:11:39.720Z,100081.19
2022-11-19T17:14:16.868Z,100079.75
2022-11-19T17:16:48.580Z,100080.56
2022-11-19T17:19:23.242Z,100085.53
2022-11-19T17:21:56.630Z,100082.84
2022-11-19T17:24:27.726Z,100085.28
2022-11-19T17:26:54.829Z,100090.75
2022-11-19T17:29:23.384Z,100088.13
2022-11-19T17:31:56.539Z,100102.28
2022-11-19T17:34:29.465Z,100098.69
2022-11-19T17:36:55.815Z,100102.41
2022-11-19T17:39:25.638Z,100086.88
2022-11-19T17:42:14.802Z,100088.25
2022-11-19T17:44:41.495Z,100089.28
2022-11-19T17:47:21.830Z,100089.34
2022-11-19T17:49:49.336Z,100090.03
2022-11-19T17:52:23.673Z,100097.13
2022-11-19T17:54:52.580Z,100101.44
2022-11-19T17:57:19.021Z,100100.50
2022-11-19T17:59:45.384Z,100103.44
2022-11-19T18:02:16.878Z,100103.50
2022-11-19T18:04:44.939Z,100112.41
2022-11-19T18:07:11.807Z,100120.03
2022-11-19T18:09:39.414Z,100123.41
2022-11-19T18:12:17.697Z,100120.31
2022-11-19T18:14:44.463Z,100131.66
2022-11-19T18:17:12.711Z,100123.75
2022-11-19T18:19:39.108Z,100128.59
2022-11-19T18:22:05.568Z,100128.47
2022-11-19T18:24:31.893Z,100116.31
2022-11-19T18:26:58.209Z,100132.59
2022-11-19T18:29:24.800Z,100127.19
2022-11-19T18:31:51.928Z,100132.59
2022-11-19T18:34:21.495Z,100139.25
2022-11-19T18:36:48.472Z,100127.97
2022-11-19T18:39:14.941Z,100119.69
2022-11-19T18:41:41.973Z,100113.81
2022-11-19T18:44:31.738Z,100127.19
2022-11-19T18:46:58.342Z,100114.25
2022-11-19T18:49:24.718Z,100115.41
2022-11-19T18:51:52.098Z,100127.38
2022-11-19T18:54:18.797Z,100130.59
2022-11-19T18:56:45.374Z,100120.06
2022-11-19T18:59:13.157Z,100127.72
2022-11-19T19:01:39.993Z,100124.13
2022-11-19T19:04:07.237Z,100131.97
2022-11-19T19:06:33.895Z,100133.34
2022-11-19T19:09:00.288Z,100133.19
2022-11-19T19:11:45.417Z,100133.81
2022-11-19T19:14:12.085Z,100140.13
2022-11-19T19:16:38.435Z,100141.03
2022-11-19T19:19:04.909Z,100138.41
2022-11-19T19:21:31.293Z,100132.47
2022-11-19T19:23:57.717Z,100137.69
2022-11-19T19:26:24.395Z,100137.69
2022-11-19T19:28:53.141Z,100146.34
2022-11-19T19:31:20.489Z,100148.31
2022-11-19T19:33:47.602Z,100146.88
2022-11-19T19:36:14.889Z,100144.06
2022-11-19T19:38:41.804Z,100145.22
2022-11-19T19:41:13.224Z,100128.50
2022-11-19T19:43:39.868Z,100117.25
2022-11-19T19:46:09.003Z,100118.06
2022-11-19T19:48:36.062Z,100132.53
2022-11-19T19:51:02.776Z,100134.66
2022-11-19T19:53:29.151Z,100140.56
2022-11-19T19:56:06.462Z,100156.22
2022-11-19T19:58:33.135Z,100156.09
2022-11-19T20:01:07.477Z,100148.19
2022-11-19T20:03:34.857Z,100155.28
2022-11-19T20:06:02.433Z,100155.53
2022-11-19T20:08:28.985Z,100162.53
2022-11-19T20:10:56.014Z,100156.38
2022-11-19T20:13:28.411Z,100164.47
2022-11-19T20:15:56.519Z,100158.41
2022-11-19T20:18:24.584Z,100140.97
2022-11-19T20:20:51.203Z,100142.84
2022-11-19T20:23:18.297Z,100138.41
2022-11-19T20:25:44.628Z,100144.53
2022-11-19T20:28:10.980Z,100152.31
2022-11-19T20:30:37.410Z,100163.50
2022-11-19T20:33:03.710Z,100151.06
2022-11-19T20:35:32.251Z,100160.44
2022-11-19T20:38:03.321Z,100168.19
2022-11-19T20:40:30.013Z,100159.53
2022-11-19T20:43:14.758Z,100166.47
2022-11-19T20:45:41.118Z,100169.69
2022-11-19T20:48:07.517Z,100159.16
2022-11-19T20:50:33.925Z,100155.13
2022-11-19T20:53:01.735Z,100171.22
2022-11-19T20:55:28.099Z,100167.00
2022-11-19T20:57:55.623Z,100165.16
2022-11-19T21:00:22.103Z,100164.13
2022-11-19T21:02:48.464Z,100156.50
2022-11-19T21:05:14.783Z,100162.47
2022-11-19T21:07:41.187Z,100157.13
2022-11-19T21:10:08.244Z,100162.22
2022-11-19T21:12:34.654Z,100142.38
2022-11-19T21:15:02.032Z,100168.84
2022-11-19T21:17:28.346Z,100168.78
2022-11-19T21:19:54.650Z,100174.44
2022-11-19T21:22:20.978Z,100166.28
2022-11-19T21:24:47.305Z,100170.03
2022-11-19T21:27:13.619Z,100170.13
2022-11-19T21:29:39.990Z,100162.28
2022-11-19T21:32:06.424Z,100154.09
2022-11-19T21:34:33.741Z,100149.69
2022-11-19T21:37:00.159Z,100155.75
2022-11-19T21:39:26.547Z,100164.53
2022-11-19T21:41:52.844Z,100157.59
2022-11-19T21:44:21.736Z,100160.13
2022-11-19T21:46:48.575Z,100158.66
2022-11-19T21:49:14.888Z,100167.38
2022-11-19T21:51:41.326Z,100167.13
2022-11-19T21:54:07.778Z,100168.78
2022-11-19T21:56:38.639Z,100163.03
2022-11-19T21:59:06.565Z,100167.06
2022-11-19T22:01:32.894Z,100161.78
2022-11-19T22:03:59.197Z,100161.03
2022-11-19T22:06:25.566Z,100154.19
2022-11-19T22:08:51.924Z,100153.63
2022-11-19T22:11:31.030Z,100155.91
2022-11-19T22:14:05.991Z,100157.53
2022-11-19T22:16:35.040Z,100161.50
2022-11-19T22:19:01.830Z,100158.28
2022-11-19T22:21:31.725Z,100148.72
2022-11-19T22:23:58.474Z,100149.28
2022-11-19T22:26:25.144Z,100151.47
2022-11-19T22:28:51.518Z,100147.63
2022-11-19T22:31:17.834Z,100138.03
2022-11-19T22:33:44.276Z,100142.28
2022-11-19T22:36:11.350Z,100137.25
2022-11-19T22:38:38.959Z,100147.72
2022-11-19T22:41:11.572Z,100151.78
2022-11-19T22:43:39.085Z,100156.50
2022-11-19T22:46:06.382Z,100153.19
2022-11-19T22:48:33.259Z,100150.75
2022-11-19T22:51:05.096Z,100153.69
2022-11-19T22:53:31.411Z,100149.34
2022-11-19T22:56:01.745Z,100145.28
2022-11-19T22:58:28.092Z,100138.28
2022-11-19T23:00:54.494Z,100142.63
2022-11-19T23:03:20.937Z,100137.31
2022-11-19T23:05:52.113Z,100147.63
2022-11-19T23:08:18.912Z,100156.28
2022-11-19T23:10:46.323Z,100147.38
2022-11-19T23:13:32.674Z,100147.44
2022-11-19T23:16:10.716Z,100141.31
2022-11-19T23:18:41.597Z,100130.13
2022-11-19T23:21:19.136Z,100137.31
2022-11-19T23:23:45.909Z,100138.56
2022-11-19T23:26:14.143Z,100130.03
2022-11-19T23:28:40.737Z,100123.03
2022-11-19T23:31:09.954Z,100127.91
2022-11-19T23:33:38.722Z,100110.25
2022-11-19T23:36:07.557Z,100118.28
2022-11-19T23:38:38.429Z,100108.97
2022-11-19T23:41:06.714Z,100128.78
2022-11-19T23:43:34.113Z,100128.78
2022-11-19T23:46:08.929Z,100117.81
2022-11-19T23:48:36.476Z,100125.00
2022-11-19T23:51:08.586Z,100110.56
2022-11-19T23:53:35.717Z,100112.91
2022-11-19T23:56:02.888Z,100107.31
2022-11-19T23:58:29.281Z,100106.28
